Time;durP1;ratioP1;P1;durP2;ratioP2;P2;SDS_P1;SDS_P2;PMS_P1;PMS_P2;Temp;Humidity;BMP_temperature;BMP_pressure;BME280_temperature;BME280_humidity;BME280_pressure;Samples;Min_cycle;Max_cycle;Signal;HPM_P1;HPM_P2
2021/11/23 00:01:02;;;;;;;14.43;13.23;;;0.80;99.90;;;;;;5056389;28;20170;-64
2021/11/23 00:03:27;;;;;;;14.37;13.10;;;0.80;99.90;;;;;;5071621;28;20205;-64
2021/11/23 00:05:53;;;;;;;15.40;12.60;;;0.80;99.90;;;;;;5062809;28;20285;-64
2021/11/23 00:08:18;;;;;;;13.77;12.57;;;0.80;99.90;;;;;;5051780;28;20167;-64
2021/11/23 00:10:45;;;;;;;13.67;12.37;;;0.80;99.90;;;;;;5058743;28;20654;-64
2021/11/23 00:13:12;;;;;;;15.17;13.87;;;0.80;99.90;;;;;;5071712;28;20182;-64
2021/11/23 00:15:38;;;;;;;14.17;12.97;;;0.60;99.90;;;;;;5064835;28;20196;-64
2021/11/23 00:18:06;;;;;;;13.73;12.67;;;0.60;99.90;;;;;;5051762;28;20718;-64
2021/11/23 00:20:33;;;;;;;17.53;12.97;;;0.50;99.90;;;;;;5056153;28;20278;-64
2021/11/23 00:22:59;;;;;;;15.10;13.67;;;0.50;99.90;;;;;;5071673;28;20263;-64
2021/11/23 00:25:26;;;;;;;15.57;14.30;;;0.50;99.90;;;;;;5067982;28;20203;-64
2021/11/23 00:27:53;;;;;;;13.97;12.70;;;0.50;99.90;;;;;;5051510;28;20167;-64
2021/11/23 00:30:19;;;;;;;15.07;13.67;;;0.50;99.90;;;;;;5052952;28;20280;-64
2021/11/23 00:32:45;;;;;;;13.07;12.17;;;0.50;99.90;;;;;;5071882;28;20189;-64
2021/11/23 00:35:10;;;;;;;13.97;12.60;;;0.50;99.90;;;;;;5070757;28;20218;-64
2021/11/23 00:37:36;;;;;;;13.13;11.93;;;0.50;99.90;;;;;;5056560;28;20236;-64
2021/11/23 00:40:03;;;;;;;13.23;12.13;;;0.50;99.90;;;;;;5067756;28;20179;-64
2021/11/23 00:42:29;;;;;;;14.60;13.17;;;0.40;99.90;;;;;;5055117;28;20185;-64
2021/11/23 00:44:54;;;;;;;14.13;12.93;;;0.30;99.90;;;;;;5059895;28;20679;-64
2021/11/23 00:47:20;;;;;;;13.73;12.50;;;0.30;99.90;;;;;;5074970;28;20167;-64
2021/11/23 00:49:46;;;;;;;10.93;10.03;;;0.20;99.90;;;;;;5070874;28;20193;-65
2021/11/23 00:52:12;;;;;;;14.90;13.43;;;0.10;99.90;;;;;;5054968;28;20577;-64
2021/11/23 00:54:38;;;;;;;20.30;17.27;;;0.10;99.90;;;;;;5057714;28;20171;-64
2021/11/23 00:57:04;;;;;;;20.83;15.67;;;0.00;99.90;;;;;;5075071;28;20540;-64
2021/11/23 00:59:30;;;;;;;17.57;15.77;;;-0.10;99.90;;;;;;5073786;28;20216;-64
2021/11/23 01:01:56;;;;;;;14.93;13.33;;;-0.20;99.90;;;;;;5055505;28;20174;-64
2021/11/23 01:04:22;;;;;;;15.07;13.60;;;-0.20;99.90;;;;;;5055142;28;20198;-64
2021/11/23 01:06:49;;;;;;;12.80;11.90;;;-0.30;99.90;;;;;;5074292;28;20200;-64
2021/11/23 01:09:15;;;;;;;12.07;11.13;;;-0.40;99.90;;;;;;5073462;28;20174;-65
2021/11/23 01:11:41;;;;;;;12.90;11.60;;;-0.40;99.90;;;;;;5056801;28;20170;-65
2021/11/23 01:14:08;;;;;;;12.73;11.50;;;-0.40;99.90;;;;;;5054724;28;20712;-64
2021/11/23 01:16:35;;;;;;;11.90;11.00;;;-0.40;99.90;;;;;;5071792;28;20275;-65
2021/11/23 01:19:00;;;;;;;11.13;10.23;;;-0.40;99.90;;;;;;5074374;28;20202;-65
2021/11/23 01:21:26;;;;;;;11.20;10.27;;;-0.50;99.90;;;;;;5058876;28;20725;-65
2021/11/23 01:23:53;;;;;;;12.13;11.23;;;-0.50;99.90;;;;;;5054301;28;20209;-65
2021/11/23 01:26:20;;;;;;;11.47;10.17;;;-0.60;99.90;;;;;;5067512;28;20198;-65
2021/11/23 01:28:45;;;;;;;11.77;10.77;;;-0.50;99.90;;;;;;5074356;28;20216;-65
2021/11/23 01:31:11;;;;;;;12.47;11.07;;;-0.50;99.90;;;;;;5061903;28;20178;-65
2021/11/23 01:33:37;;;;;;;11.67;10.83;;;-0.50;99.90;;;;;;5054293;28;20191;-65
2021/11/23 01:36:03;;;;;;;15.63;11.20;;;-0.40;99.90;;;;;;5064872;28;20213;-65
2021/11/23 01:38:28;;;;;;;11.40;10.50;;;-0.40;99.90;;;;;;5074179;28;20175;-65
2021/11/23 01:40:54;;;;;;;11.73;10.73;;;-0.40;99.90;;;;;;5067133;28;20205;-65
2021/11/23 01:43:19;;;;;;;11.07;10.13;;;-0.40;99.90;;;;;;5061692;28;20248;-65
2021/11/23 01:45:45;;;;;;;11.67;10.77;;;-0.40;99.90;;;;;;5069147;28;20194;-65
2021/11/23 01:48:11;;;;;;;12.90;11.80;;;-0.30;99.90;;;;;;5068644;28;20179;-65
2021/11/23 01:50:38;;;;;;;12.27;11.07;;;-0.30;99.90;;;;;;5066032;28;20178;-65
2021/11/23 01:53:06;;;;;;;26.27;18.27;;;-0.30;99.90;;;;;;5054033;28;20174;-65
2021/11/23 01:55:36;;;;;;;47.37;25.90;;;-0.20;99.90;;;;;;5054180;28;20544;-65
2021/11/23 01:58:07;;;;;;;33.30;19.70;;;-0.10;99.90;;;;;;5056757;28;20213;-65
2021/11/23 02:00:34;;;;;;;15.83;14.37;;;0.00;99.90;;;;;;5053392;28;20228;-65
2021/11/23 02:03:00;;;;;;;15.10;13.93;;;0.20;99.90;;;;;;5055796;28;20209;-64
2021/11/23 02:05:26;;;;;;;15.43;13.83;;;0.20;99.90;;;;;;5071808;28;20193;-65
2021/11/23 02:07:52;;;;;;;16.60;15.03;;;0.20;99.90;;;;;;5073019;28;20206;-65
2021/11/23 02:10:18;;;;;;;20.10;18.13;;;0.30;99.90;;;;;;5053226;28;20175;-65
2021/11/23 02:12:44;;;;;;;18.07;16.17;;;0.30;99.90;;;;;;5052315;28;20273;-64
2021/11/23 02:15:11;;;;;;;17.43;14.70;;;0.20;99.90;;;;;;5071700;28;20210;-65
2021/11/23 02:17:37;;;;;;;17.57;15.60;;;0.20;99.90;;;;;;5073163;28;20182;-64
2021/11/23 02:20:09;;;;;;;16.53;14.83;;;0.20;99.90;;;;;;5056376;28;20179;-65
2021/11/23 02:22:34;;;;;;;13.80;12.63;;;0.10;99.90;;;;;;5053324;28;20549;-65
2021/11/23 02:25:00;;;;;;;16.10;13.63;;;0.00;99.90;;;;;;5070353;28;20202;-64
2021/11/23 02:27:26;;;;;;;14.87;13.47;;;-0.10;99.90;;;;;;5073109;28;20635;-65
2021/11/23 02:29:51;;;;;;;13.87;11.40;;;-0.10;99.90;;;;;;5057066;28;20218;-66
2021/11/23 02:32:17;;;;;;;12.13;11.03;;;-0.20;99.90;;;;;;5053128;28;20183;-65
2021/11/23 02:34:43;;;;;;;13.47;11.47;;;-0.20;99.90;;;;;;5066277;28;20245;-64
2021/11/23 02:37:09;;;;;;;16.03;11.23;;;-0.20;99.90;;;;;;5072988;28;20182;-64
2021/11/23 02:39:34;;;;;;;12.60;11.60;;;-0.20;99.90;;;;;;5060525;28;20244;-64
2021/11/23 02:42:00;;;;;;;12.50;11.33;;;-0.30;99.90;;;;;;5053069;28;20182;-65
2021/11/23 02:44:26;;;;;;;14.87;13.57;;;-0.30;99.90;;;;;;5063803;28;20552;-65
2021/11/23 02:46:52;;;;;;;12.80;11.70;;;-0.40;99.90;;;;;;5072997;28;20198;-65
2021/11/23 02:49:21;;;;;;;12.87;11.80;;;-0.40;99.90;;;;;;5062958;28;20590;-65
2021/11/23 02:51:48;;;;;;;12.03;10.90;;;-0.40;99.90;;;;;;5053002;28;20546;-65
2021/11/23 02:54:14;;;;;;;11.87;10.80;;;-0.40;99.90;;;;;;5060823;28;20174;-65
2021/11/23 02:56:40;;;;;;;13.03;11.80;;;-0.40;99.90;;;;;;5072994;28;20589;-65
2021/11/23 02:59:05;;;;;;;12.40;11.57;;;-0.40;99.90;;;;;;5065955;28;20216;-65
2021/11/23 03:01:31;;;;;;;12.50;10.57;;;-0.50;99.90;;;;;;5051678;28;20171;-64
2021/11/23 03:03:57;;;;;;;12.07;11.07;;;-0.50;99.90;;;;;;5058032;28;20220;-64
2021/11/23 03:06:23;;;;;;;12.50;11.20;;;-0.50;99.90;;;;;;5073455;28;20198;-70
2021/11/23 03:08:51;;;;;;;12.73;11.53;;;-0.50;99.90;;;;;;5069471;28;20178;-70
2021/11/23 03:11:20;;;;;;;12.50;11.23;;;-0.40;99.90;;;;;;5053153;28;20174;-68
2021/11/23 03:13:46;;;;;;;14.30;11.47;;;-0.50;99.90;;;;;;5056146;28;20189;-69
2021/11/23 03:16:12;;;;;;;11.70;10.67;;;-0.50;99.90;;;;;;5071875;28;20201;-69
2021/11/23 03:18:37;;;;;;;13.23;11.40;;;-0.40;99.90;;;;;;5072498;28;20229;-71
2021/11/23 03:21:04;;;;;;;11.57;10.77;;;-0.40;99.90;;;;;;5051508;28;20672;-66
2021/11/23 03:23:30;;;;;;;12.83;11.60;;;-0.40;99.90;;;;;;5052107;28;20589;-68
2021/11/23 03:25:55;;;;;;;13.53;12.33;;;-0.40;99.90;;;;;;5073385;28;20201;-70
2021/11/23 03:28:21;;;;;;;13.93;12.77;;;-0.40;99.90;;;;;;5073112;28;20170;-70
2021/11/23 03:30:47;;;;;;;13.10;11.60;;;-0.40;99.90;;;;;;5053959;28;20721;-67
2021/11/23 03:33:13;;;;;;;14.23;12.93;;;-0.40;99.90;;;;;;5052987;28;20178;-70
2021/11/23 03:35:41;;;;;;;11.43;10.73;;;-0.40;99.90;;;;;;5071355;22;20302;-66
2021/11/23 03:38:09;;;;;;;12.27;11.07;;;-0.40;99.90;;;;;;5031526;28;20218;-66
2021/11/23 03:40:37;;;;;;;12.37;11.23;;;-0.40;99.90;;;;;;5047023;28;20636;-65
2021/11/23 03:43:04;;;;;;;14.00;11.93;;;-0.40;99.90;;;;;;5051391;28;20687;-65
2021/11/23 03:45:31;;;;;;;12.03;11.23;;;-0.40;99.90;;;;;;5046418;28;20218;-66
2021/11/23 03:47:57;;;;;;;12.80;11.70;;;-0.40;99.90;;;;;;5031397;28;20633;-66
2021/11/23 03:50:23;;;;;;;13.13;11.67;;;-0.40;99.90;;;;;;5044611;28;20185;-67
2021/11/23 03:52:49;;;;;;;13.30;12.30;;;-0.50;99.90;;;;;;5051326;28;20205;-67
2021/11/23 03:55:19;;;;;;;12.53;11.57;;;-0.60;99.90;;;;;;5037801;28;20511;-66
2021/11/23 03:57:47;;;;;;;12.93;11.83;;;-0.60;99.90;;;;;;5030246;28;20201;-67
2021/11/23 04:00:14;;;;;;;12.30;11.20;;;-0.50;99.90;;;;;;5042186;28;20675;-66
2021/11/23 04:02:40;;;;;;;12.63;11.63;;;-0.50;99.90;;;;;;5051203;28;20667;-66
2021/11/23 04:05:07;;;;;;;15.60;13.67;;;-0.40;99.90;;;;;;5048218;28;20182;-65
2021/11/23 04:07:33;;;;;;;14.30;12.80;;;-0.50;99.90;;;;;;5031199;28;20172;-66
2021/11/23 04:09:59;;;;;;;12.43;11.30;;;-0.40;99.90;;;;;;5039575;28;20182;-66
2021/11/23 04:12:24;;;;;;;12.60;11.50;;;-0.40;99.90;;;;;;5053520;28;20171;-66
2021/11/23 04:14:50;;;;;;;13.13;12.10;;;-0.30;99.90;;;;;;5047714;28;20171;-66
2021/11/23 04:17:15;;;;;;;13.00;11.90;;;-0.40;99.90;;;;;;5035057;28;20573;-66
2021/11/23 04:19:41;;;;;;;12.47;11.57;;;-0.40;99.90;;;;;;5040101;28;20261;-66
2021/11/23 04:22:07;;;;;;;12.93;11.67;;;-0.50;99.90;;;;;;5054737;28;20173;-66
2021/11/23 04:24:34;;;;;;;13.17;12.03;;;-0.50;99.90;;;;;;5050133;28;20656;-66
2021/11/23 04:26:59;;;;;;;13.10;11.90;;;-0.50;99.90;;;;;;5034986;28;20191;-65
2021/11/23 04:29:25;;;;;;;12.47;11.37;;;-0.60;99.90;;;;;;5037057;28;20233;-66
2021/11/23 04:31:51;;;;;;;11.73;10.73;;;-0.60;99.90;;;;;;5054981;28;20209;-66
2021/11/23 04:34:17;;;;;;;13.93;12.63;;;-0.60;99.90;;;;;;5053524;28;20186;-65
2021/11/23 04:36:43;;;;;;;11.93;10.83;;;-0.60;99.90;;;;;;5034843;28;20579;-65
2021/11/23 04:39:11;;;;;;;12.10;11.03;;;-0.60;99.90;;;;;;5034366;28;20176;-65
2021/11/23 04:41:37;;;;;;;13.47;12.03;;;-0.70;99.90;;;;;;5053910;28;20177;-65
2021/11/23 04:44:03;;;;;;;11.87;10.93;;;-0.70;99.90;;;;;;5054246;28;20206;-65
2021/11/23 04:46:29;;;;;;;12.53;11.30;;;-0.70;99.90;;;;;;5036846;28;20192;-64
2021/11/23 04:48:54;;;;;;;13.50;11.27;;;-0.70;99.90;;;;;;5054402;28;20213;-66
2021/11/23 04:51:22;;;;;;;12.50;11.20;;;-0.60;99.90;;;;;;5036959;28;20179;-66
2021/11/23 04:53:48;;;;;;;12.93;12.03;;;-0.60;99.90;;;;;;5034495;28;20175;-66
2021/11/23 04:56:14;;;;;;;12.90;11.77;;;-0.50;99.90;;;;;;5049414;28;20206;-64
2021/11/23 04:58:40;;;;;;;13.80;12.37;;;-0.30;99.90;;;;;;5054347;28;20171;-66
2021/11/23 05:01:05;;;;;;;13.57;12.40;;;-0.20;99.90;;;;;;5040658;28;20198;-65
2021/11/23 05:03:31;;;;;;;14.13;12.63;;;-0.20;99.90;;;;;;5034654;28;20245;-67
2021/11/23 05:05:57;;;;;;;14.50;13.23;;;-0.10;99.90;;;;;;5046722;28;20198;-66
2021/11/23 05:08:22;;;;;;;15.07;12.17;;;0.00;99.90;;;;;;5054344;28;20573;-66
2021/11/23 05:10:48;;;;;;;14.50;13.07;;;0.10;99.90;;;;;;5042613;28;20233;-66
2021/11/23 05:13:13;;;;;;;13.43;12.07;;;0.20;99.90;;;;;;5034114;28;20210;-64
2021/11/23 05:15:39;;;;;;;14.10;12.70;;;0.20;99.90;;;;;;5043195;28;20264;-66
2021/11/23 05:18:05;;;;;;;15.40;13.57;;;0.30;99.90;;;;;;5053845;28;20170;-66
2021/11/23 05:20:30;;;;;;;17.63;13.90;;;0.40;99.90;;;;;;5046156;28;20243;-66
2021/11/23 05:22:56;;;;;;;15.70;14.33;;;0.50;99.90;;;;;;5033040;28;20191;-65
2021/11/23 05:25:22;;;;;;;14.83;13.43;;;0.60;99.90;;;;;;5039239;28;20226;-65
2021/11/23 05:27:47;;;;;;;14.27;13.10;;;0.70;99.90;;;;;;5053590;28;20198;-66
2021/11/23 05:30:13;;;;;;;14.93;13.63;;;0.80;99.90;;;;;;5048707;28;20182;-66
2021/11/23 05:32:41;;;;;;;14.20;12.80;;;0.90;99.90;;;;;;5033863;28;20217;-66
2021/11/23 05:35:07;;;;;;;15.10;13.60;;;1.00;99.90;;;;;;5036348;28;20166;-66
2021/11/23 05:37:32;;;;;;;15.73;14.17;;;1.00;99.90;;;;;;5053708;28;20198;-65
2021/11/23 05:39:58;;;;;;;16.00;13.33;;;1.00;99.90;;;;;;5051735;28;20167;-66
2021/11/23 05:42:23;;;;;;;15.70;14.17;;;1.10;99.90;;;;;;5033186;28;20164;-65
2021/11/23 05:44:49;;;;;;;14.20;12.90;;;1.20;99.90;;;;;;5033725;28;20222;-66
2021/11/23 05:47:15;;;;;;;15.53;13.90;;;1.20;99.90;;;;;;5053403;28;20178;-65
2021/11/23 05:49:42;;;;;;;15.17;13.80;;;1.30;99.90;;;;;;5052971;28;20181;-67
2021/11/23 05:52:07;;;;;;;14.83;13.60;;;1.40;99.90;;;;;;5037636;28;20649;-66
2021/11/23 05:54:34;;;;;;;14.73;13.57;;;1.40;99.90;;;;;;5033309;28;20172;-66
2021/11/23 05:57:01;;;;;;;14.50;13.00;;;1.40;99.90;;;;;;5033208;28;20195;-66
2021/11/23 05:59:26;;;;;;;14.33;12.87;;;1.40;99.90;;;;;;5033143;28;20180;-67
2021/11/23 06:01:52;;;;;;;15.20;13.63;;;1.40;99.90;;;;;;5032944;28;20217;-64
2021/11/23 06:04:17;;;;;;;15.17;13.40;;;1.50;99.90;;;;;;5046959;28;20221;-66
2021/11/23 06:06:43;;;;;;;14.17;12.57;;;1.40;99.90;;;;;;5053224;28;20193;-65
2021/11/23 06:09:09;;;;;;;16.33;14.57;;;1.50;99.90;;;;;;5040023;28;20194;-66
2021/11/23 06:11:35;;;;;;;15.23;12.50;;;1.50;99.90;;;;;;5032934;28;20172;-66
2021/11/23 06:14:01;;;;;;;17.63;13.77;;;1.50;99.90;;;;;;5044173;28;20182;-66
2021/11/23 06:16:29;;;;;;;19.60;12.77;;;1.50;99.90;;;;;;5052913;28;20337;-66
2021/11/23 06:18:54;;;;;;;13.50;12.13;;;1.50;99.90;;;;;;5042085;28;20194;-67
2021/11/23 06:21:20;;;;;;;15.47;13.97;;;1.50;99.90;;;;;;5032706;28;20172;-67
2021/11/23 06:23:47;;;;;;;15.50;12.50;;;1.40;99.90;;;;;;5041195;28;20337;-66
2021/11/23 06:26:12;;;;;;;17.07;12.77;;;1.40;99.90;;;;;;5052335;28;20312;-66
2021/11/23 06:28:38;;;;;;;13.73;12.43;;;1.40;99.90;;;;;;5045422;28;20266;-66
2021/11/23 06:31:04;;;;;;;16.13;14.40;;;1.40;99.90;;;;;;5033424;28;20655;-66
2021/11/23 06:33:29;;;;;;;14.63;12.53;;;1.30;99.90;;;;;;5037626;28;20708;-67
2021/11/23 06:35:55;;;;;;;20.93;13.67;;;1.40;99.90;;;;;;5042578;28;20222;-66
2021/11/23 06:38:21;;;;;;;14.53;13.23;;;1.40;99.90;;;;;;5035634;28;20190;-66
2021/11/23 06:40:47;;;;;;;15.90;14.23;;;1.40;99.90;;;;;;5052076;28;20664;-65
2021/11/23 06:43:13;;;;;;;15.13;12.97;;;1.40;99.90;;;;;;5050014;28;20554;-66
2021/11/23 06:45:40;;;;;;;15.47;13.87;;;1.50;99.90;;;;;;5032542;28;20198;-66
2021/11/23 06:48:08;;;;;;;14.73;13.27;;;1.50;99.90;;;;;;5033093;28;20172;-66
2021/11/23 06:50:34;;;;;;;14.30;13.00;;;1.50;99.90;;;;;;5050256;28;20175;-66
2021/11/23 06:53:02;;;;;;;14.53;13.17;;;1.60;99.90;;;;;;5052167;28;20258;-66
2021/11/23 06:55:27;;;;;;;14.50;13.20;;;1.60;99.90;;;;;;5012418;28;20199;-67
2021/11/23 06:57:53;;;;;;;15.03;13.63;;;1.60;99.90;;;;;;5012476;28;20186;-66
2021/11/23 07:00:19;;;;;;;13.20;11.90;;;1.70;99.90;;;;;;5048700;28;20277;-67
2021/11/23 07:02:45;;;;;;;15.10;13.20;;;1.60;99.90;;;;;;5052038;28;20675;-66
2021/11/23 07:05:10;;;;;;;15.77;14.17;;;1.60;99.90;;;;;;5038249;28;20722;-65
2021/11/23 07:07:37;;;;;;;18.17;13.57;;;1.70;99.90;;;;;;5032166;28;20635;-66
2021/11/23 07:10:06;;;;;;;14.70;13.17;;;1.70;99.90;;;;;;5029992;28;20183;-66
2021/11/23 07:12:32;;;;;;;14.63;13.20;;;1.70;99.90;;;;;;5042126;28;20699;-67
2021/11/23 07:14:58;;;;;;;14.70;13.13;;;1.70;99.90;;;;;;5033807;28;20625;-67
2021/11/23 07:17:24;;;;;;;15.37;12.87;;;1.70;99.90;;;;;;5031590;28;20187;-66
2021/11/23 07:19:49;;;;;;;14.73;13.33;;;1.70;99.90;;;;;;5031615;28;20175;-66
2021/11/23 07:22:16;;;;;;;15.30;13.67;;;1.70;99.90;;;;;;5031944;28;20171;-66
2021/11/23 07:24:41;;;;;;;17.07;13.77;;;1.70;99.90;;;;;;5031810;28;20597;-66
2021/11/23 07:27:07;;;;;;;15.43;13.87;;;1.70;99.90;;;;;;5031776;28;20203;-64
2021/11/23 07:29:33;;;;;;;14.77;13.40;;;1.80;99.90;;;;;;5031674;28;20172;-67
2021/11/23 07:31:58;;;;;;;18.13;13.77;;;1.80;99.90;;;;;;5042915;28;20186;-67
2021/11/23 07:34:24;;;;;;;15.33;13.47;;;1.90;99.90;;;;;;5035519;28;20184;-67
2021/11/23 07:36:49;;;;;;;16.23;14.40;;;1.90;99.90;;;;;;5033981;28;20211;-66
2021/11/23 07:39:15;;;;;;;15.93;14.43;;;2.00;99.90;;;;;;5031138;28;20636;-67
2021/11/23 07:41:41;;;;;;;17.30;15.47;;;2.00;99.90;;;;;;5039733;28;20179;-66
2021/11/23 07:44:07;;;;;;;16.23;14.53;;;2.00;99.90;;;;;;5051024;28;20233;-66
2021/11/23 07:46:33;;;;;;;16.87;13.97;;;2.00;99.90;;;;;;5042719;28;20205;-67
2021/11/23 07:48:59;;;;;;;17.83;15.20;;;2.00;99.90;;;;;;5031182;28;20210;-66
2021/11/23 07:51:25;;;;;;;19.60;15.67;;;2.00;99.90;;;;;;5032655;28;20202;-67
2021/11/23 07:53:51;;;;;;;17.60;15.73;;;2.10;99.90;;;;;;5047543;28;20194;-66
2021/11/23 07:56:17;;;;;;;18.50;15.77;;;2.10;99.90;;;;;;5046775;28;20207;-66
2021/11/23 07:58:43;;;;;;;19.23;15.93;;;2.10;99.90;;;;;;5032103;28;20186;-67
2021/11/23 08:01:09;;;;;;;19.37;15.67;;;2.20;99.90;;;;;;5030026;28;20179;-67
2021/11/23 08:03:34;;;;;;;21.87;15.63;;;2.30;99.90;;;;;;5032083;28;20203;-67
2021/11/23 08:06:00;;;;;;;19.63;15.73;;;2.50;99.90;;;;;;5050756;28;20190;-65
2021/11/23 08:08:26;;;;;;;20.10;18.13;;;2.60;99.90;;;;;;5037396;28;20221;-67
2021/11/23 08:10:52;;;;;;;21.90;18.73;;;2.70;99.90;;;;;;5031728;28;20178;-67
2021/11/23 08:13:17;;;;;;;19.93;17.73;;;2.90;99.90;;;;;;5043219;28;20183;-67
2021/11/23 08:15:44;;;;;;;20.30;18.13;;;3.00;99.90;;;;;;5050886;28;20248;-66
2021/11/23 08:18:10;;;;;;;20.53;18.17;;;3.00;99.90;;;;;;5045599;28;20600;-67
2021/11/23 08:20:37;;;;;;;23.73;18.10;;;3.00;99.90;;;;;;5050777;28;20183;-66
2021/11/23 08:23:04;;;;;;;19.63;17.57;;;3.10;99.90;;;;;;5049105;28;20607;-66
2021/11/23 08:25:30;;;;;;;20.97;17.27;;;3.20;99.90;;;;;;5050834;28;20202;-66
2021/11/23 08:27:55;;;;;;;19.57;15.77;;;3.20;99.90;;;;;;5042047;28;20182;-67
2021/11/23 08:30:22;;;;;;;19.47;17.30;;;3.30;99.90;;;;;;5030560;28;20268;-66
2021/11/23 08:32:48;;;;;;;22.97;15.93;;;3.40;99.90;;;;;;5036343;28;20637;-66
2021/11/23 08:35:14;;;;;;;19.60;15.93;;;3.30;99.90;;;;;;5050674;28;20226;-66
2021/11/23 08:37:40;;;;;;;19.00;15.97;;;3.30;99.90;;;;;;5045465;28;20206;-67
2021/11/23 08:40:06;;;;;;;20.27;16.07;;;3.40;99.90;;;;;;5031126;28;20664;-65
2021/11/23 08:42:32;;;;;;;21.47;15.37;;;3.40;99.90;;;;;;5035442;28;20174;-67
2021/11/23 08:44:58;;;;;;;20.37;16.60;;;3.40;99.90;;;;;;5050853;28;20253;-66
2021/11/23 08:47:25;;;;;;;22.13;16.83;;;3.30;99.90;;;;;;5047428;28;20644;-67
2021/11/23 08:49:52;;;;;;;19.10;15.87;;;3.30;99.90;;;;;;5030547;28;20254;-67
2021/11/23 08:52:18;;;;;;;19.23;16.63;;;3.30;99.90;;;;;;5031730;28;20233;-67
2021/11/23 08:54:44;;;;;;;20.27;17.40;;;3.30;99.90;;;;;;5050589;28;20194;-66
2021/11/23 08:57:10;;;;;;;21.03;17.60;;;3.30;99.90;;;;;;5050163;28;20616;-66
2021/11/23 08:59:41;;;;;;;25.00;17.23;;;3.30;99.90;;;;;;5033036;28;20184;-67
2021/11/23 09:02:07;;;;;;;21.27;16.67;;;3.40;99.90;;;;;;5033945;28;20552;-67
2021/11/23 09:04:34;;;;;;;23.60;18.10;;;3.50;99.90;;;;;;5053895;28;20619;-66
2021/11/23 09:07:03;;;;;;;21.77;16.37;;;3.50;99.90;;;;;;5054063;28;20248;-65
2021/11/23 09:09:30;;;;;;;20.13;16.87;;;3.50;99.90;;;;;;5050256;28;20175;-66
2021/11/23 09:11:58;;;;;;;17.40;15.47;;;3.50;99.90;;;;;;5054987;28;20195;-67
2021/11/23 09:14:27;;;;;;;18.83;16.60;;;3.60;99.90;;;;;;5036157;28;20711;-66
2021/11/23 09:16:52;;;;;;;27.33;17.30;;;3.70;99.90;;;;;;5032649;28;20199;-65
2021/11/23 09:19:18;;;;;;;27.07;18.70;;;3.80;99.90;;;;;;5049509;28;20181;-65
2021/11/23 09:21:44;;;;;;;20.50;18.30;;;3.80;99.90;;;;;;5053712;28;20297;-66
2021/11/23 09:24:09;;;;;;;22.13;18.03;;;3.80;99.90;;;;;;5038010;28;20199;-66
2021/11/23 09:26:35;;;;;;;22.90;16.57;;;3.80;99.90;;;;;;5033663;28;20270;-67
2021/11/23 09:29:01;;;;;;;26.73;18.20;;;3.90;99.90;;;;;;5046846;28;20175;-67
2021/11/23 09:31:27;;;;;;;24.83;18.23;;;4.00;99.90;;;;;;5053365;28;20481;-66
2021/11/23 09:33:53;;;;;;;23.33;18.63;;;4.20;99.90;;;;;;5052046;28;20174;-65
2021/11/23 09:36:19;;;;;;;31.47;17.63;;;4.30;99.90;;;;;;5077479;22;20238;-64
2021/11/23 09:38:45;;;;;;;25.67;17.50;;;4.40;99.90;;;;;;5053223;28;20605;-64
2021/11/23 09:41:11;;;;;;;27.97;18.57;;;4.50;99.90;;;;;;5053010;28;20198;-64
2021/11/23 09:43:38;;;;;;;24.57;17.73;;;4.50;99.90;;;;;;5053134;28;20297;-64
2021/11/23 09:46:07;;;;;;;25.60;17.53;;;4.60;99.90;;;;;;5051926;28;20562;-65
2021/11/23 09:48:34;;;;;;;24.53;18.40;;;4.60;99.90;;;;;;5053133;28;20225;-64
2021/11/23 09:51:00;;;;;;;24.10;16.97;;;4.60;99.90;;;;;;5052290;28;20179;-64
2021/11/23 09:53:26;;;;;;;28.50;17.77;;;4.70;99.90;;;;;;5052732;28;20543;-64
2021/11/23 09:55:53;;;;;;;19.60;17.47;;;4.90;99.90;;;;;;5047671;28;20207;-64
2021/11/23 09:58:20;;;;;;;24.47;18.40;;;5.00;99.90;;;;;;5052738;28;20185;-64
2021/11/23 10:00:49;;;;;;;21.83;17.10;;;5.00;99.90;;;;;;5051704;28;20182;-65
2021/11/23 10:03:27;;;;;;;23.13;17.77;;;5.10;99.90;;;;;;5053320;28;20542;-64
2021/11/23 10:06:15;;;;;;;20.57;15.53;;;5.10;99.90;;;;;;5052579;28;20191;-64
2021/11/23 10:08:43;;;;;;;18.60;15.40;;;5.10;99.90;;;;;;5052602;28;20179;-64
2021/11/23 10:11:11;;;;;;;18.23;16.27;;;5.30;99.90;;;;;;5050770;28;20171;-64
2021/11/23 10:13:45;;;;;;;21.37;16.63;;;5.50;99.90;;;;;;5052845;28;20191;-64
2021/11/23 10:16:12;;;;;;;20.03;14.97;;;5.50;99.90;;;;;;5050725;28;20247;-64
2021/11/23 10:18:39;;;;;;;20.93;16.23;;;5.60;99.90;;;;;;5052873;28;20205;-64
2021/11/23 10:21:07;;;;;;;20.70;16.23;;;5.60;99.90;;;;;;5052243;28;20167;-64
2021/11/23 10:23:42;;;;;;;18.33;15.17;;;5.60;99.90;;;;;;5052580;28;20194;-64
2021/11/23 10:26:25;;;;;;;16.80;15.00;;;5.70;99.90;;;;;;5051993;28;20201;-65
2021/11/23 10:28:53;;;;;;;25.43;16.17;;;5.70;99.90;;;;;;5052711;28;20257;-64
2021/11/23 10:31:21;;;;;;;19.03;14.13;;;5.70;99.90;;;;;;5051711;28;20226;-64
2021/11/23 10:33:59;;;;;;;20.40;15.37;;;5.70;99.90;;;;;;5052474;28;20183;-64
2021/11/23 10:36:29;;;;;;;18.43;14.80;;;5.70;99.90;;;;;;5051265;28;20221;-64
2021/11/23 10:39:03;;;;;;;20.57;15.63;;;5.70;99.90;;;;;;5052019;28;20228;-63
2021/11/23 10:41:28;;;;;;;17.00;15.20;;;5.60;99.90;;;;;;5050922;28;20605;-64
2021/11/23 10:43:54;;;;;;;18.50;14.63;;;5.60;99.90;;;;;;5051387;28;20230;-64
2021/11/23 10:46:22;;;;;;;19.20;15.63;;;5.70;99.90;;;;;;5051670;28;20187;-64
2021/11/23 10:48:56;;;;;;;17.20;15.33;;;5.70;99.90;;;;;;5051867;28;20220;-64
2021/11/23 10:51:23;;;;;;;21.27;15.70;;;5.80;99.90;;;;;;5051806;28;20170;-64
2021/11/23 10:53:49;;;;;;;20.40;16.77;;;6.10;99.90;;;;;;5051812;28;20184;-64
2021/11/23 10:56:20;;;;;;;19.90;14.93;;;6.20;99.90;;;;;;5051355;28;20204;-64
2021/11/23 10:58:48;;;;;;;19.30;14.97;;;6.40;99.90;;;;;;5051739;28;20667;-64
2021/11/23 11:01:15;;;;;;;21.13;16.47;;;6.40;99.90;;;;;;5050357;28;20175;-64
2021/11/23 11:03:42;;;;;;;18.43;14.70;;;6.40;99.90;;;;;;5051730;28;20202;-64
2021/11/23 11:06:09;;;;;;;16.60;14.77;;;6.50;99.90;;;;;;5050540;28;20187;-64
2021/11/23 11:08:43;;;;;;;17.17;15.37;;;6.60;99.90;;;;;;5051683;28;20171;-64
2021/11/23 11:11:15;;;;;;;17.50;14.57;;;6.50;99.90;;;;;;5051498;28;20538;-64
2021/11/23 11:13:41;;;;;;;16.83;14.93;;;6.60;99.90;;;;;;5051896;28;20194;-64
2021/11/23 11:16:09;;;;;;;17.33;14.97;;;6.70;99.90;;;;;;5051403;28;20195;-64
2021/11/23 11:18:35;;;;;;;17.20;15.50;;;6.70;99.90;;;;;;5051748;28;20174;-63
2021/11/23 11:21:03;;;;;;;16.13;13.57;;;6.60;99.90;;;;;;5050463;28;20679;-63
2021/11/23 11:23:37;;;;;;;20.07;15.97;;;6.60;99.90;;;;;;5051414;28;20207;-64
2021/11/23 11:28:58;;;;;;;16.10;14.47;;;6.90;99.90;;;;;;5032171;28;20171;-65
2021/11/23 11:31:47;;;;;;;16.53;14.80;;;7.00;99.90;;;;;;5031317;28;20163;-64
2021/11/23 11:34:31;;;;;;;23.70;15.40;;;7.10;99.90;;;;;;5035414;28;20182;-65
2021/11/23 11:36:59;;;;;;;17.47;14.37;;;7.10;99.90;;;;;;5051379;28;20570;-64
2021/11/23 11:39:36;;;;;;;17.20;14.83;;;7.20;99.90;;;;;;5050499;28;20189;-64
2021/11/23 11:42:20;;;;;;;17.20;14.40;;;7.10;99.90;;;;;;5051130;28;20573;-65
2021/11/23 11:44:52;;;;;;;21.60;15.77;;;7.00;99.90;;;;;;5051118;28;20202;-64
2021/11/23 11:47:28;;;;;;;21.03;15.17;;;6.90;99.90;;;;;;5050905;28;20183;-65
2021/11/23 11:49:55;;;;;;;16.97;14.90;;;6.90;99.90;;;;;;5050775;28;20167;-65
2021/11/23 11:52:24;;;;;;;15.97;14.27;;;6.90;99.90;;;;;;5050975;28;20643;-64
2021/11/23 11:55:17;;;;;;;15.50;14.07;;;6.80;99.90;;;;;;5051075;28;20182;-64
2021/11/23 11:57:47;;;;;;;20.97;14.70;;;6.90;99.90;;;;;;5051360;28;20545;-64
2021/11/23 12:00:28;;;;;;;25.97;17.67;;;6.80;99.90;;;;;;5049219;28;20179;-64
2021/11/23 12:03:10;;;;;;;17.37;13.13;;;6.90;99.90;;;;;;5051151;28;20204;-64
2021/11/23 12:06:01;;;;;;;16.27;13.37;;;6.80;99.90;;;;;;5051005;28;20175;-64
2021/11/23 12:08:37;;;;;;;20.73;14.73;;;6.90;99.90;;;;;;5050882;28;20178;-64
2021/11/23 12:11:09;;;;;;;15.80;14.07;;;6.80;99.90;;;;;;5049877;28;20190;-65
2021/11/23 12:13:44;;;;;;;28.57;21.13;;;6.80;99.90;;;;;;5051129;28;20218;-65
2021/11/23 12:16:14;;;;;;;25.90;17.73;;;6.90;99.90;;;;;;5049126;28;20296;-65
2021/11/23 12:19:09;;;;;;;19.73;16.63;;;7.00;99.90;;;;;;5051157;28;20174;-65
2021/11/23 12:21:53;;;;;;;19.03;14.47;;;7.00;99.90;;;;;;5050509;28;20178;-64
2021/11/23 12:24:41;;;;;;;18.23;14.50;;;6.90;99.90;;;;;;5050431;28;20226;-65
2021/11/23 12:27:14;;;;;;;17.83;15.30;;;6.90;99.90;;;;;;5051006;28;20539;-64
2021/11/23 12:29:40;;;;;;;17.10;14.93;;;6.80;99.90;;;;;;5050528;28;20536;-65
2021/11/23 12:32:06;;;;;;;20.90;15.50;;;6.70;99.90;;;;;;5049900;28;20170;-65
2021/11/23 12:34:32;;;;;;;19.47;14.63;;;6.60;99.90;;;;;;5054218;28;20254;-65
2021/11/23 12:36:58;;;;;;;18.97;15.20;;;6.60;99.90;;;;;;5054598;28;20691;-65